sensor_id;sensor_type;location;lat;lon;timestamp;P1;durP1;ratioP1;P2;durP2;ratioP2
44446;SDS011;30152;52.066;5.358;2023-09-19T06:23:23;14.52;;;2.47;;
44446;SDS011;30152;52.066;5.358;2023-09-19T06:25:52;14.05;;;2.40;;
44446;SDS011;30152;52.066;5.358;2023-09-19T06:28:18;10.95;;;1.85;;
44446;SDS011;30152;52.066;5.358;2023-09-19T06:30:49;13.70;;;2.42;;
44446;SDS011;30152;52.066;5.358;2023-09-19T06:33:14;16.25;;;2.25;;
44446;SDS011;30152;52.066;5.358;2023-09-19T06:35:40;11.25;;;1.80;;
44446;SDS011;30152;52.066;5.358;2023-09-19T06:38:07;15.57;;;2.10;;
44446;SDS011;30152;52.066;5.358;2023-09-19T06:40:36;16.48;;;3.08;;
44446;SDS011;30152;52.066;5.358;2023-09-19T06:43:01;19.42;;;2.75;;
44446;SDS011;30152;52.066;5.358;2023-09-19T06:45:28;22.17;;;3.03;;
44446;SDS011;30152;52.066;5.358;2023-09-19T06:47:54;12.48;;;2.08;;
44446;SDS011;30152;52.066;5.358;2023-09-19T06:50:22;14.77;;;2.00;;
44446;SDS011;30152;52.066;5.358;2023-09-19T06:52:49;21.58;;;2.30;;
44446;SDS011;30152;52.066;5.358;2023-09-19T06:55:17;16.05;;;2.15;;
44446;SDS011;30152;52.066;5.358;2023-09-19T06:57:46;17.50;;;2.60;;
44446;SDS011;30152;52.066;5.358;2023-09-19T07:00:12;14.27;;;3.00;;
44446;SDS011;30152;52.066;5.358;2023-09-19T07:02:43;17.67;;;3.80;;
44446;SDS011;30152;52.066;5.358;2023-09-19T07:05:09;21.90;;;2.80;;
44446;SDS011;30152;52.066;5.358;2023-09-19T07:07:34;15.75;;;2.40;;
44446;SDS011;30152;52.066;5.358;2023-09-19T07:10:03;18.45;;;2.85;;
44446;SDS011;30152;52.066;5.358;2023-09-19T07:12:36;13.10;;;2.30;;
44446;SDS011;30152;52.066;5.358;2023-09-19T07:15:01;21.08;;;2.53;;
44446;SDS011;30152;52.066;5.358;2023-09-19T07:17:27;12.23;;;2.08;;
44446;SDS011;30152;52.066;5.358;2023-09-19T07:19:54;18.75;;;2.97;;
44446;SDS011;30152;52.066;5.358;2023-09-19T07:22:19;19.73;;;2.72;;
44446;SDS011;30152;52.066;5.358;2023-09-19T07:24:45;19.45;;;2.40;;
44446;SDS011;30152;52.066;5.358;2023-09-19T07:27:13;18.00;;;2.90;;
44446;SDS011;30152;52.066;5.358;2023-09-19T07:29:39;21.25;;;3.13;;
44446;SDS011;30152;52.066;5.358;2023-09-19T07:32:05;16.20;;;2.92;;
44446;SDS011;30152;52.066;5.358;2023-09-19T07:34:31;17.40;;;2.42;;
44446;SDS011;30152;52.066;5.358;2023-09-19T07:36:57;12.98;;;2.78;;
44446;SDS011;30152;52.066;5.358;2023-09-19T07:39:23;14.63;;;2.47;;
44446;SDS011;30152;52.066;5.358;2023-09-19T07:41:49;17.25;;;2.45;;
44446;SDS011;30152;52.066;5.358;2023-09-19T07:44:14;16.00;;;2.85;;
44446;SDS011;30152;52.066;5.358;2023-09-19T07:46:40;22.45;;;2.63;;
44446;SDS011;30152;52.066;5.358;2023-09-19T07:49:06;19.20;;;2.65;;
44446;SDS011;30152;52.066;5.358;2023-09-19T07:51:33;18.92;;;2.42;;
44446;SDS011;30152;52.066;5.358;2023-09-19T07:54:01;19.52;;;2.65;;
44446;SDS011;30152;52.066;5.358;2023-09-19T07:56:27;18.80;;;2.53;;
44446;SDS011;30152;52.066;5.358;2023-09-19T07:58:53;22.85;;;3.60;;
44446;SDS011;30152;52.066;5.358;2023-09-19T08:01:19;15.25;;;2.58;;
44446;SDS011;30152;52.066;5.358;2023-09-19T08:03:48;15.93;;;2.72;;
44446;SDS011;30152;52.066;5.358;2023-09-19T08:06:14;14.45;;;2.63;;
44446;SDS011;30152;52.066;5.358;2023-09-19T08:08:40;15.90;;;2.30;;
44446;SDS011;30152;52.066;5.358;2023-09-19T08:11:06;18.80;;;3.20;;
44446;SDS011;30152;52.066;5.358;2023-09-19T08:13:37;19.05;;;2.88;;
44446;SDS011;30152;52.066;5.358;2023-09-19T08:16:08;18.48;;;2.13;;
44446;SDS011;30152;52.066;5.358;2023-09-19T08:18:34;18.77;;;3.28;;
44446;SDS011;30152;52.066;5.358;2023-09-19T08:21:00;17.40;;;2.78;;
44446;SDS011;30152;52.066;5.358;2023-09-19T08:23:26;23.13;;;3.53;;
44446;SDS011;30152;52.066;5.358;2023-09-19T08:25:55;10.48;;;2.33;;
44446;SDS011;30152;52.066;5.358;2023-09-19T08:28:22;20.95;;;3.15;;
44446;SDS011;30152;52.066;5.358;2023-09-19T08:30:49;19.98;;;3.22;;
44446;SDS011;30152;52.066;5.358;2023-09-19T08:33:16;24.30;;;3.33;;
44446;SDS011;30152;52.066;5.358;2023-09-19T08:35:42;12.07;;;2.13;;
44446;SDS011;30152;52.066;5.358;2023-09-19T08:38:08;14.15;;;2.40;;
44446;SDS011;30152;52.066;5.358;2023-09-19T08:40:37;9.70;;;2.38;;
44446;SDS011;30152;52.066;5.358;2023-09-19T08:43:05;22.33;;;3.25;;
44446;SDS011;30152;52.066;5.358;2023-09-19T08:45:32;17.15;;;2.63;;
44446;SDS011;30152;52.066;5.358;2023-09-19T08:50:52;14.93;;;2.38;;
44446;SDS011;30152;52.066;5.358;2023-09-19T08:56:36;12.73;;;2.08;;
44446;SDS011;30152;52.066;5.358;2023-09-19T08:59:04;20.65;;;2.47;;
44446;SDS011;30152;52.066;5.358;2023-09-19T09:01:32;13.25;;;2.50;;
44446;SDS011;30152;52.066;5.358;2023-09-19T09:03:58;17.95;;;2.70;;
44446;SDS011;30152;52.066;5.358;2023-09-19T09:06:25;19.40;;;2.67;;
44446;SDS011;30152;52.066;5.358;2023-09-19T09:08:53;15.90;;;2.72;;
44446;SDS011;30152;52.066;5.358;2023-09-19T09:11:18;17.92;;;2.45;;
44446;SDS011;30152;52.066;5.358;2023-09-19T09:13:44;14.40;;;4.20;;
44446;SDS011;30152;52.066;5.358;2023-09-19T09:16:11;15.07;;;2.13;;
44446;SDS011;30152;52.066;5.358;2023-09-19T09:18:38;11.55;;;2.72;;
44446;SDS011;30152;52.066;5.358;2023-09-19T09:21:04;23.83;;;4.15;;
44446;SDS011;30152;52.066;5.358;2023-09-19T09:23:30;20.95;;;3.20;;
44446;SDS011;30152;52.066;5.358;2023-09-19T09:25:57;18.15;;;2.30;;
44446;SDS011;30152;52.066;5.358;2023-09-19T09:28:31;14.50;;;2.22;;
44446;SDS011;30152;52.066;5.358;2023-09-19T09:30:58;11.93;;;2.33;;
44446;SDS011;30152;52.066;5.358;2023-09-19T09:33:24;13.27;;;2.33;;
44446;SDS011;30152;52.066;5.358;2023-09-19T09:38:22;15.20;;;2.22;;
44446;SDS011;30152;52.066;5.358;2023-09-19T09:40:57;11.85;;;2.55;;
44446;SDS011;30152;52.066;5.358;2023-09-19T09:43:32;18.70;;;2.60;;
44446;SDS011;30152;52.066;5.358;2023-09-19T09:48:44;12.50;;;2.63;;
44446;SDS011;30152;52.066;5.358;2023-09-19T09:51:16;17.40;;;2.70;;
44446;SDS011;30152;52.066;5.358;2023-09-19T09:54:08;18.08;;;2.65;;
44446;SDS011;30152;52.066;5.358;2023-09-19T09:56:41;16.55;;;2.60;;
44446;SDS011;30152;52.066;5.358;2023-09-19T09:59:25;15.73;;;2.17;;
44446;SDS011;30152;52.066;5.358;2023-09-19T10:02:11;15.65;;;2.80;;
44446;SDS011;30152;52.066;5.358;2023-09-19T10:04:38;19.60;;;3.33;;
44446;SDS011;30152;52.066;5.358;2023-09-19T10:07:26;16.30;;;2.20;;
44446;SDS011;30152;52.066;5.358;2023-09-19T10:10:02;16.63;;;2.70;;
44446;SDS011;30152;52.066;5.358;2023-09-19T10:12:46;13.65;;;2.67;;
44446;SDS011;30152;52.066;5.358;2023-09-19T10:15:13;12.55;;;2.00;;
44446;SDS011;30152;52.066;5.358;2023-09-19T10:17:44;10.38;;;1.80;;
44446;SDS011;30152;52.066;5.358;2023-09-19T10:20:14;10.20;;;2.03;;
44446;SDS011;30152;52.066;5.358;2023-09-19T10:23:08;15.38;;;1.88;;
44446;SDS011;30152;52.066;5.358;2023-09-19T10:25:42;13.52;;;2.42;;
44446;SDS011;30152;52.066;5.358;2023-09-19T10:28:11;15.38;;;2.42;;
44446;SDS011;30152;52.066;5.358;2023-09-19T10:30:40;13.02;;;2.00;;
44446;SDS011;30152;52.066;5.358;2023-09-19T10:33:10;11.77;;;2.15;;
44446;SDS011;30152;52.066;5.358;2023-09-19T10:35:38;11.68;;;2.28;;
44446;SDS011;30152;52.066;5.358;2023-09-19T10:38:06;11.77;;;2.50;;
44446;SDS011;30152;52.066;5.358;2023-09-19T10:40:34;9.15;;;2.08;;
44446;SDS011;30152;52.066;5.358;2023-09-19T10:43:05;10.05;;;2.20;;
44446;SDS011;30152;52.066;5.358;2023-09-19T10:45:34;10.48;;;2.25;;
44446;SDS011;30152;52.066;5.358;2023-09-19T10:48:01;13.55;;;2.53;;
44446;SDS011;30152;52.066;5.358;2023-09-19T10:50:30;11.15;;;1.88;;
44446;SDS011;30152;52.066;5.358;2023-09-19T10:53:11;13.98;;;2.20;;
44446;SDS011;30152;52.066;5.358;2023-09-19T10:55:38;18.98;;;3.03;;
44446;SDS011;30152;52.066;5.358;2023-09-19T10:58:07;12.02;;;2.22;;
44446;SDS011;30152;52.066;5.358;2023-09-19T11:03:22;11.20;;;1.77;;
44446;SDS011;30152;52.066;5.358;2023-09-19T11:06:01;12.57;;;1.90;;
44446;SDS011;30152;52.066;5.358;2023-09-19T11:11:42;6.32;;;1.90;;
44446;SDS011;30152;52.066;5.358;2023-09-19T11:14:14;19.15;;;2.60;;
44446;SDS011;30152;52.066;5.358;2023-09-19T11:30:33;19.17;;;2.80;;
44446;SDS011;30152;52.066;5.358;2023-09-19T11:36:10;10.30;;;1.83;;
44446;SDS011;30152;52.066;5.358;2023-09-19T11:46:16;9.80;;;1.40;;
44446;SDS011;30152;52.066;5.358;2023-09-19T11:48:47;8.43;;;1.55;;
44446;SDS011;30152;52.066;5.358;2023-09-19T11:51:14;12.13;;;1.42;;
44446;SDS011;30152;52.066;5.358;2023-09-19T11:54:04;13.05;;;3.75;;
44446;SDS011;30152;52.066;5.358;2023-09-19T11:56:30;10.73;;;2.13;;
44446;SDS011;30152;52.066;5.358;2023-09-19T11:58:57;6.60;;;1.17;;
44446;SDS011;30152;52.066;5.358;2023-09-19T12:01:31;10.70;;;3.13;;
44446;SDS011;30152;52.066;5.358;2023-09-19T12:04:00;5.55;;;1.20;;
44446;SDS011;30152;52.066;5.358;2023-09-19T12:06:27;8.57;;;1.20;;
44446;SDS011;30152;52.066;5.358;2023-09-19T12:08:54;9.82;;;1.45;;
44446;SDS011;30152;52.066;5.358;2023-09-19T12:11:22;11.90;;;1.83;;
44446;SDS011;30152;52.066;5.358;2023-09-19T12:13:48;7.25;;;1.42;;
44446;SDS011;30152;52.066;5.358;2023-09-19T12:16:17;6.05;;;1.15;;
44446;SDS011;30152;52.066;5.358;2023-09-19T12:18:47;7.87;;;1.10;;
44446;SDS011;30152;52.066;5.358;2023-09-19T12:21:30;7.85;;;1.42;;
44446;SDS011;30152;52.066;5.358;2023-09-19T12:24:04;8.60;;;1.15;;
44446;SDS011;30152;52.066;5.358;2023-09-19T12:26:38;8.45;;;1.30;;
44446;SDS011;30152;52.066;5.358;2023-09-19T12:29:05;8.40;;;1.30;;
44446;SDS011;30152;52.066;5.358;2023-09-19T12:31:35;7.80;;;1.63;;
44446;SDS011;30152;52.066;5.358;2023-09-19T12:34:02;10.15;;;1.45;;
44446;SDS011;30152;52.066;5.358;2023-09-19T12:36:27;6.22;;;1.20;;
44446;SDS011;30152;52.066;5.358;2023-09-19T12:38:59;7.05;;;1.00;;
44446;SDS011;30152;52.066;5.358;2023-09-19T12:41:28;4.85;;;1.15;;
44446;SDS011;30152;52.066;5.358;2023-09-19T12:43:53;8.40;;;1.85;;
44446;SDS011;30152;52.066;5.358;2023-09-19T12:46:22;7.55;;;1.30;;
44446;SDS011;30152;52.066;5.358;2023-09-19T12:51:46;10.30;;;1.25;;
44446;SDS011;30152;52.066;5.358;2023-09-19T12:54:15;6.47;;;1.35;;
44446;SDS011;30152;52.066;5.358;2023-09-19T12:56:45;6.18;;;1.17;;
44446;SDS011;30152;52.066;5.358;2023-09-19T12:59:14;7.40;;;1.10;;
44446;SDS011;30152;52.066;5.358;2023-09-19T13:01:43;6.13;;;1.20;;
44446;SDS011;30152;52.066;5.358;2023-09-19T13:04:15;9.10;;;1.35;;
44446;SDS011;30152;52.066;5.358;2023-09-19T13:06:54;7.80;;;1.30;;
44446;SDS011;30152;52.066;5.358;2023-09-19T13:09:25;7.28;;;1.60;;
44446;SDS011;30152;52.066;5.358;2023-09-19T13:12:03;5.78;;;0.88;;
44446;SDS011;30152;52.066;5.358;2023-09-19T13:14:31;7.72;;;1.30;;
44446;SDS011;30152;52.066;5.358;2023-09-19T13:17:01;7.68;;;1.08;;
44446;SDS011;30152;52.066;5.358;2023-09-19T13:19:41;9.15;;;1.58;;
44446;SDS011;30152;52.066;5.358;2023-09-19T13:25:25;5.80;;;1.63;;
44446;SDS011;30152;52.066;5.358;2023-09-19T13:27:55;8.27;;;0.90;;
44446;SDS011;30152;52.066;5.358;2023-09-19T13:30:22;7.75;;;1.25;;
44446;SDS011;30152;52.066;5.358;2023-09-19T13:32:50;8.05;;;1.63;;
44446;SDS011;30152;52.066;5.358;2023-09-19T13:35:17;9.18;;;1.33;;
44446;SDS011;30152;52.066;5.358;2023-09-19T13:37:43;7.32;;;0.95;;
44446;SDS011;30152;52.066;5.358;2023-09-19T13:40:12;8.40;;;1.30;;
44446;SDS011;30152;52.066;5.358;2023-09-19T13:42:39;7.28;;;1.10;;
44446;SDS011;30152;52.066;5.358;2023-09-19T13:45:06;13.23;;;1.02;;
44446;SDS011;30152;52.066;5.358;2023-09-19T13:47:32;7.60;;;1.20;;
44446;SDS011;30152;52.066;5.358;2023-09-19T13:49:59;8.23;;;1.45;;
44446;SDS011;30152;52.066;5.358;2023-09-19T13:52:25;6.55;;;1.00;;
44446;SDS011;30152;52.066;5.358;2023-09-19T13:54:53;7.85;;;1.17;;
44446;SDS011;30152;52.066;5.358;2023-09-19T13:57:21;6.25;;;1.05;;
44446;SDS011;30152;52.066;5.358;2023-09-19T13:59:47;7.00;;;1.10;;
44446;SDS011;30152;52.066;5.358;2023-09-19T14:02:12;3.63;;;1.02;;
44446;SDS011;30152;52.066;5.358;2023-09-19T14:04:39;6.97;;;0.90;;
44446;SDS011;30152;52.066;5.358;2023-09-19T14:07:05;8.98;;;1.30;;
44446;SDS011;30152;52.066;5.358;2023-09-19T14:09:32;6.72;;;1.02;;
44446;SDS011;30152;52.066;5.358;2023-09-19T14:11:58;9.45;;;1.00;;
44446;SDS011;30152;52.066;5.358;2023-09-19T14:14:24;6.13;;;0.80;;
44446;SDS011;30152;52.066;5.358;2023-09-19T14:16:50;11.48;;;1.35;;
44446;SDS011;30152;52.066;5.358;2023-09-19T14:19:17;6.55;;;1.23;;
44446;SDS011;30152;52.066;5.358;2023-09-19T14:21:43;5.90;;;1.00;;
44446;SDS011;30152;52.066;5.358;2023-09-19T14:24:09;5.55;;;0.93;;
44446;SDS011;30152;52.066;5.358;2023-09-19T14:26:36;8.32;;;1.23;;
44446;SDS011;30152;52.066;5.358;2023-09-19T14:29:02;8.43;;;1.27;;
44446;SDS011;30152;52.066;5.358;2023-09-19T14:31:28;6.63;;;1.58;;
44446;SDS011;30152;52.066;5.358;2023-09-19T14:33:54;6.40;;;1.63;;
44446;SDS011;30152;52.066;5.358;2023-09-19T14:36:24;5.65;;;1.17;;
44446;SDS011;30152;52.066;5.358;2023-09-19T14:38:56;8.13;;;1.20;;
44446;SDS011;30152;52.066;5.358;2023-09-19T14:41:24;10.30;;;1.33;;
44446;SDS011;30152;52.066;5.358;2023-09-19T14:43:54;6.03;;;1.13;;
44446;SDS011;30152;52.066;5.358;2023-09-19T14:46:23;4.95;;;1.02;;
44446;SDS011;30152;52.066;5.358;2023-09-19T14:48:50;10.75;;;1.73;;
44446;SDS011;30152;52.066;5.358;2023-09-19T14:51:16;6.95;;;1.60;;
44446;SDS011;30152;52.066;5.358;2023-09-19T14:53:44;9.43;;;1.55;;
44446;SDS011;30152;52.066;5.358;2023-09-19T14:56:10;8.32;;;2.40;;
44446;SDS011;30152;52.066;5.358;2023-09-19T14:58:36;9.02;;;1.77;;
44446;SDS011;30152;52.066;5.358;2023-09-19T15:03:35;7.50;;;1.30;;
44446;SDS011;30152;52.066;5.358;2023-09-19T15:06:05;5.22;;;1.35;;
44446;SDS011;30152;52.066;5.358;2023-09-19T15:08:32;9.00;;;1.60;;
44446;SDS011;30152;52.066;5.358;2023-09-19T15:10:59;10.18;;;1.70;;
44446;SDS011;30152;52.066;5.358;2023-09-19T15:13:28;8.57;;;1.80;;
44446;SDS011;30152;52.066;5.358;2023-09-19T15:15:58;8.77;;;1.70;;
44446;SDS011;30152;52.066;5.358;2023-09-19T15:18:28;5.90;;;1.50;;
44446;SDS011;30152;52.066;5.358;2023-09-19T15:20:55;7.50;;;1.48;;
44446;SDS011;30152;52.066;5.358;2023-09-19T15:23:30;8.20;;;1.95;;
44446;SDS011;30152;52.066;5.358;2023-09-19T15:25:57;9.60;;;1.60;;
44446;SDS011;30152;52.066;5.358;2023-09-19T15:28:23;9.40;;;1.50;;
44446;SDS011;30152;52.066;5.358;2023-09-19T15:30:49;9.80;;;1.45;;
44446;SDS011;30152;52.066;5.358;2023-09-19T15:33:15;9.02;;;1.70;;
44446;SDS011;30152;52.066;5.358;2023-09-19T15:35:40;8.05;;;1.48;;
44446;SDS011;30152;52.066;5.358;2023-09-19T15:38:07;11.90;;;1.88;;
44446;SDS011;30152;52.066;5.358;2023-09-19T15:40:33;7.65;;;1.58;;
44446;SDS011;30152;52.066;5.358;2023-09-19T15:42:59;13.45;;;2.88;;
44446;SDS011;30152;52.066;5.358;2023-09-19T15:45:25;6.20;;;1.90;;
44446;SDS011;30152;52.066;5.358;2023-09-19T15:47:51;11.60;;;1.92;;
44446;SDS011;30152;52.066;5.358;2023-09-19T15:50:16;10.48;;;2.25;;
44446;SDS011;30152;52.066;5.358;2023-09-19T15:52:42;7.68;;;1.88;;
44446;SDS011;30152;52.066;5.358;2023-09-19T15:55:08;10.20;;;2.00;;
44446;SDS011;30152;52.066;5.358;2023-09-19T15:57:38;8.32;;;1.55;;
44446;SDS011;30152;52.066;5.358;2023-09-19T16:00:04;9.35;;;1.63;;
44446;SDS011;30152;52.066;5.358;2023-09-19T16:02:35;7.70;;;1.70;;
44446;SDS011;30152;52.066;5.358;2023-09-19T16:05:01;7.95;;;2.03;;
44446;SDS011;30152;52.066;5.358;2023-09-19T16:07:31;11.13;;;1.88;;
44446;SDS011;30152;52.066;5.358;2023-09-19T16:10:02;9.07;;;1.52;;
44446;SDS011;30152;52.066;5.358;2023-09-19T16:12:27;10.15;;;2.00;;
44446;SDS011;30152;52.066;5.358;2023-09-19T16:14:55;11.65;;;2.20;;
44446;SDS011;30152;52.066;5.358;2023-09-19T16:17:21;7.60;;;1.55;;
44446;SDS011;30152;52.066;5.358;2023-09-19T16:19:47;4.75;;;1.48;;
44446;SDS011;30152;52.066;5.358;2023-09-19T16:22:12;8.48;;;1.77;;
44446;SDS011;30152;52.066;5.358;2023-09-19T16:24:50;9.77;;;2.30;;
44446;SDS011;30152;52.066;5.358;2023-09-19T16:27:15;10.68;;;1.65;;
44446;SDS011;30152;52.066;5.358;2023-09-19T16:29:44;7.03;;;1.42;;
44446;SDS011;30152;52.066;5.358;2023-09-19T16:32:10;9.05;;;1.83;;
44446;SDS011;30152;52.066;5.358;2023-09-19T16:34:36;9.40;;;1.80;;
44446;SDS011;30152;52.066;5.358;2023-09-19T16:37:02;9.93;;;1.60;;
44446;SDS011;30152;52.066;5.358;2023-09-19T16:39:28;6.55;;;1.67;;
44446;SDS011;30152;52.066;5.358;2023-09-19T16:41:54;8.43;;;1.70;;
44446;SDS011;30152;52.066;5.358;2023-09-19T16:44:19;7.40;;;1.58;;
44446;SDS011;30152;52.066;5.358;2023-09-19T16:46:45;9.63;;;1.85;;
44446;SDS011;30152;52.066;5.358;2023-09-19T16:49:11;8.60;;;1.50;;
44446;SDS011;30152;52.066;5.358;2023-09-19T16:51:37;8.38;;;1.65;;
44446;SDS011;30152;52.066;5.358;2023-09-19T16:54:03;11.70;;;1.92;;
44446;SDS011;30152;52.066;5.358;2023-09-19T16:56:29;8.63;;;1.70;;
44446;SDS011;30152;52.066;5.358;2023-09-19T16:58:58;7.65;;;1.50;;
44446;SDS011;30152;52.066;5.358;2023-09-19T17:01:26;19.08;;;4.60;;
44446;SDS011;30152;52.066;5.358;2023-09-19T17:03:51;9.38;;;1.77;;
44446;SDS011;30152;52.066;5.358;2023-09-19T17:06:17;20.10;;;2.53;;
44446;SDS011;30152;52.066;5.358;2023-09-19T17:08:47;10.45;;;2.03;;
44446;SDS011;30152;52.066;5.358;2023-09-19T17:11:14;7.05;;;1.63;;
44446;SDS011;30152;52.066;5.358;2023-09-19T17:13:42;9.80;;;1.58;;
44446;SDS011;30152;52.066;5.358;2023-09-19T17:16:10;12.45;;;2.53;;
44446;SDS011;30152;52.066;5.358;2023-09-19T17:18:36;13.60;;;1.80;;
44446;SDS011;30152;52.066;5.358;2023-09-19T17:21:03;11.02;;;2.45;;
44446;SDS011;30152;52.066;5.358;2023-09-19T17:23:35;7.82;;;1.67;;
44446;SDS011;30152;52.066;5.358;2023-09-19T17:26:03;10.25;;;1.83;;
44446;SDS011;30152;52.066;5.358;2023-09-19T17:28:35;6.25;;;1.45;;
44446;SDS011;30152;52.066;5.358;2023-09-19T17:31:01;11.38;;;2.17;;
44446;SDS011;30152;52.066;5.358;2023-09-19T17:33:28;9.73;;;2.53;;
44446;SDS011;30152;52.066;5.358;2023-09-19T17:38:39;7.75;;;1.77;;
44446;SDS011;30152;52.066;5.358;2023-09-19T17:41:08;7.68;;;2.13;;
44446;SDS011;30152;52.066;5.358;2023-09-19T17:43:35;8.40;;;2.00;;
44446;SDS011;30152;52.066;5.358;2023-09-19T17:46:06;8.63;;;1.55;;
44446;SDS011;30152;52.066;5.358;2023-09-19T17:48:45;7.10;;;1.90;;
44446;SDS011;30152;52.066;5.358;2023-09-19T17:51:18;6.97;;;1.85;;
44446;SDS011;30152;52.066;5.358;2023-09-19T17:53:44;8.00;;;1.80;;
44446;SDS011;30152;52.066;5.358;2023-09-19T17:56:11;7.50;;;1.60;;
44446;SDS011;30152;52.066;5.358;2023-09-19T17:58:39;6.32;;;1.77;;
44446;SDS011;30152;52.066;5.358;2023-09-19T18:03:40;9.17;;;2.20;;
44446;SDS011;30152;52.066;5.358;2023-09-19T18:06:06;7.97;;;1.85;;
44446;SDS011;30152;52.066;5.358;2023-09-19T18:08:33;15.85;;;2.63;;
44446;SDS011;30152;52.066;5.358;2023-09-19T18:10:59;10.50;;;2.13;;
44446;SDS011;30152;52.066;5.358;2023-09-19T18:13:25;9.75;;;2.13;;
44446;SDS011;30152;52.066;5.358;2023-09-19T18:15:52;9.18;;;2.13;;
44446;SDS011;30152;52.066;5.358;2023-09-19T18:18:19;9.30;;;2.47;;
44446;SDS011;30152;52.066;5.358;2023-09-19T18:20:45;8.07;;;1.98;;
44446;SDS011;30152;52.066;5.358;2023-09-19T18:23:10;6.60;;;2.95;;
44446;SDS011;30152;52.066;5.358;2023-09-19T18:25:36;14.65;;;2.78;;
44446;SDS011;30152;52.066;5.358;2023-09-19T18:28:02;9.63;;;2.50;;
44446;SDS011;30152;52.066;5.358;2023-09-19T18:30:29;13.23;;;2.50;;
44446;SDS011;30152;52.066;5.358;2023-09-19T18:32:56;6.65;;;2.53;;
44446;SDS011;30152;52.066;5.358;2023-09-19T18:35:22;6.25;;;1.98;;
44446;SDS011;30152;52.066;5.358;2023-09-19T18:37:54;6.78;;;2.22;;
44446;SDS011;30152;52.066;5.358;2023-09-19T18:40:21;12.63;;;2.70;;
44446;SDS011;30152;52.066;5.358;2023-09-19T18:42:47;10.65;;;2.47;;
44446;SDS011;30152;52.066;5.358;2023-09-19T18:45:13;10.65;;;2.53;;
44446;SDS011;30152;52.066;5.358;2023-09-19T18:47:39;8.45;;;2.35;;
44446;SDS011;30152;52.066;5.358;2023-09-19T18:50:05;8.65;;;2.67;;
44446;SDS011;30152;52.066;5.358;2023-09-19T18:52:35;11.70;;;3.03;;
44446;SDS011;30152;52.066;5.358;2023-09-19T18:55:04;12.13;;;3.40;;
44446;SDS011;30152;52.066;5.358;2023-09-19T18:57:36;13.38;;;2.75;;
44446;SDS011;30152;52.066;5.358;2023-09-19T19:00:03;10.75;;;3.08;;
44446;SDS011;30152;52.066;5.358;2023-09-19T19:02:30;8.48;;;2.40;;
44446;SDS011;30152;52.066;5.358;2023-09-19T19:04:56;11.77;;;2.95;;
44446;SDS011;30152;52.066;5.358;2023-09-19T19:07:23;10.50;;;2.60;;
44446;SDS011;30152;52.066;5.358;2023-09-19T19:09:49;9.57;;;2.67;;
44446;SDS011;30152;52.066;5.358;2023-09-19T19:12:14;9.07;;;2.78;;
44446;SDS011;30152;52.066;5.358;2023-09-19T19:14:41;11.23;;;2.85;;
44446;SDS011;30152;52.066;5.358;2023-09-19T19:17:09;15.38;;;2.78;;
44446;SDS011;30152;52.066;5.358;2023-09-19T19:19:41;12.20;;;3.15;;
44446;SDS011;30152;52.066;5.358;2023-09-19T19:22:09;13.00;;;3.03;;
44446;SDS011;30152;52.066;5.358;2023-09-19T19:24:35;13.65;;;3.28;;
44446;SDS011;30152;52.066;5.358;2023-09-19T19:27:01;9.40;;;2.60;;
44446;SDS011;30152;52.066;5.358;2023-09-19T19:29:27;9.95;;;2.67;;
44446;SDS011;30152;52.066;5.358;2023-09-19T19:31:53;13.98;;;3.80;;
44446;SDS011;30152;52.066;5.358;2023-09-19T19:34:20;14.02;;;3.30;;
44446;SDS011;30152;52.066;5.358;2023-09-19T19:36:45;12.23;;;3.00;;
44446;SDS011;30152;52.066;5.358;2023-09-19T19:39:11;18.02;;;2.90;;
44446;SDS011;30152;52.066;5.358;2023-09-19T19:41:37;8.48;;;2.63;;
44446;SDS011;30152;52.066;5.358;2023-09-19T19:44:04;13.50;;;3.08;;
44446;SDS011;30152;52.066;5.358;2023-09-19T19:46:30;9.77;;;3.08;;
44446;SDS011;30152;52.066;5.358;2023-09-19T19:48:55;13.25;;;3.15;;
44446;SDS011;30152;52.066;5.358;2023-09-19T19:51:23;13.50;;;2.78;;
44446;SDS011;30152;52.066;5.358;2023-09-19T19:53:49;10.75;;;2.70;;
44446;SDS011;30152;52.066;5.358;2023-09-19T19:56:15;11.00;;;2.67;;
44446;SDS011;30152;52.066;5.358;2023-09-19T19:58:41;12.48;;;3.05;;
44446;SDS011;30152;52.066;5.358;2023-09-19T20:01:07;11.77;;;2.53;;
44446;SDS011;30152;52.066;5.358;2023-09-19T20:03:35;10.13;;;2.60;;
44446;SDS011;30152;52.066;5.358;2023-09-19T20:06:01;10.57;;;3.00;;
44446;SDS011;30152;52.066;5.358;2023-09-19T20:08:28;9.23;;;2.40;;
44446;SDS011;30152;52.066;5.358;2023-09-19T20:11:00;13.77;;;2.72;;
44446;SDS011;30152;52.066;5.358;2023-09-19T20:13:33;9.65;;;2.45;;
44446;SDS011;30152;52.066;5.358;2023-09-19T20:15:59;10.00;;;2.63;;
44446;SDS011;30152;52.066;5.358;2023-09-19T20:18:25;11.75;;;2.40;;
44446;SDS011;30152;52.066;5.358;2023-09-19T20:20:51;8.48;;;2.30;;
44446;SDS011;30152;52.066;5.358;2023-09-19T20:23:20;11.65;;;2.70;;
44446;SDS011;30152;52.066;5.358;2023-09-19T20:25:46;12.20;;;2.67;;
44446;SDS011;30152;52.066;5.358;2023-09-19T20:28:12;12.95;;;2.88;;
44446;SDS011;30152;52.066;5.358;2023-09-19T20:30:39;12.73;;;3.08;;
44446;SDS011;30152;52.066;5.358;2023-09-19T20:33:07;13.73;;;2.70;;
44446;SDS011;30152;52.066;5.358;2023-09-19T20:35:36;10.88;;;2.42;;
44446;SDS011;30152;52.066;5.358;2023-09-19T20:38:03;8.85;;;2.30;;
44446;SDS011;30152;52.066;5.358;2023-09-19T20:40:29;13.80;;;3.08;;
44446;SDS011;30152;52.066;5.358;2023-09-19T20:42:55;14.65;;;3.15;;
44446;SDS011;30152;52.066;5.358;2023-09-19T20:45:23;10.38;;;2.72;;
44446;SDS011;30152;52.066;5.358;2023-09-19T20:47:49;10.38;;;2.83;;
44446;SDS011;30152;52.066;5.358;2023-09-19T20:50:16;12.07;;;3.22;;
44446;SDS011;30152;52.066;5.358;2023-09-19T20:52:43;17.33;;;4.20;;
44446;SDS011;30152;52.066;5.358;2023-09-19T20:55:09;15.23;;;3.50;;
44446;SDS011;30152;52.066;5.358;2023-09-19T20:57:35;12.80;;;3.00;;
44446;SDS011;30152;52.066;5.358;2023-09-19T21:00:02;15.85;;;3.15;;
44446;SDS011;30152;52.066;5.358;2023-09-19T21:02:32;9.82;;;3.33;;
44446;SDS011;30152;52.066;5.358;2023-09-19T21:04:57;14.25;;;2.75;;
44446;SDS011;30152;52.066;5.358;2023-09-19T21:07:24;13.30;;;3.42;;
44446;SDS011;30152;52.066;5.358;2023-09-19T21:09:53;15.18;;;3.08;;
